Time;durP1;ratioP1;P1;durP2;ratioP2;P2;SDS_P1;SDS_P2;PMS_P1;PMS_P2;Temp;Humidity;BMP_temperature;BMP_pressure;BME280_temperature;BME280_humidity;BME280_pressure;Samples;Min_cycle;Max_cycle;Signal;HPM_P1;HPM_P2
2022/09/15 00:02:13;;;;;;;5.18;1.87;;;;;;;;;;2330052;57;21102;-77
2022/09/15 00:04:40;;;;;;;4.75;1.98;;;;;;;;;;2330036;57;21115;-74
2022/09/15 00:07:07;;;;;;;5.50;2.10;;;;;;;;;;2329728;57;21548;-77
2022/09/15 00:09:35;;;;;;;8.20;2.08;;;;;;;;;;2330068;57;21050;-77
2022/09/15 00:12:02;;;;;;;8.82;2.22;;;;;;;;;;2330019;57;21560;-76
2022/09/15 00:14:29;;;;;;;3.20;1.70;;;;;;;;;;2329987;57;21117;-76
2022/09/15 00:16:56;;;;;;;2.65;1.58;;;;;;;;;;2329546;55;21048;-76
2022/09/15 00:19:23;;;;;;;3.08;1.50;;;;;;;;;;2330267;57;21045;-77
2022/09/15 00:21:50;;;;;;;4.53;1.55;;;;;;;;;;2329995;57;21612;-77
2022/09/15 00:24:17;;;;;;;4.97;1.83;;;;;;;;;;2330202;57;21054;-77
2022/09/15 00:26:44;;;;;;;6.90;1.98;;;;;;;;;;2329623;57;21137;-76
2022/09/15 00:29:11;;;;;;;4.72;1.50;;;;;;;;;;2340395;54;21140;-77
2022/09/15 00:31:39;;;;;;;7.15;2.00;;;;;;;;;;2329930;57;22238;-76
2022/09/15 00:34:06;;;;;;;4.50;2.12;;;;;;;;;;2330150;57;21182;-77
2022/09/15 00:36:33;;;;;;;4.35;2.22;;;;;;;;;;2329549;57;21125;-77
2022/09/15 00:39:01;;;;;;;5.80;1.70;;;;;;;;;;2330098;57;21525;-76
2022/09/15 00:41:28;;;;;;;4.07;1.70;;;;;;;;;;2330169;57;21046;-76
2022/09/15 00:43:56;;;;;;;3.85;2.10;;;;;;;;;;2330102;57;21097;-77
2022/09/15 00:46:24;;;;;;;5.00;2.17;;;;;;;;;;2329626;57;21588;-74
2022/09/15 00:48:54;;;;;;;4.22;2.42;;;;;;;;;;2329918;57;22187;-76
2022/09/15 00:51:24;;;;;;;5.07;1.90;;;;;;;;;;2330148;57;21039;-76
2022/09/15 00:53:52;;;;;;;4.93;1.80;;;;;;;;;;2330033;57;21058;-76
2022/09/15 00:56:19;;;;;;;4.03;2.15;;;;;;;;;;2329906;57;21109;-77
2022/09/15 00:58:50;;;;;;;3.92;2.10;;;;;;;;;;2329945;57;21054;-76
2022/09/15 01:01:17;;;;;;;3.90;1.73;;;;;;;;;;2361835;53;21062;-77
2022/09/15 01:03:45;;;;;;;4.40;2.22;;;;;;;;;;2329961;57;21058;-77
2022/09/15 01:06:15;;;;;;;4.82;2.45;;;;;;;;;;2329703;57;21133;-76
2022/09/15 01:08:45;;;;;;;3.53;2.20;;;;;;;;;;2455945;54;21110;-75
2022/09/15 01:11:15;;;;;;;4.25;1.87;;;;;;;;;;2330100;57;21094;-76
2022/09/15 01:13:42;;;;;;;4.40;1.95;;;;;;;;;;2330229;57;21066;-76
2022/09/15 01:16:21;;;;;;;9.25;2.58;;;;;;;;;;2329337;57;21062;-77
2022/09/15 01:18:53;;;;;;;6.57;2.37;;;;;;;;;;2330253;57;21054;-77
2022/09/15 01:21:26;;;;;;;4.40;2.10;;;;;;;;;;2330426;57;21133;-74
2022/09/15 01:24:14;;;;;;;5.62;2.35;;;;;;;;;;2330436;57;21034;-76
2022/09/15 01:26:56;;;;;;;5.45;2.45;;;;;;;;;;2329893;57;21106;-77
2022/09/15 01:29:48;;;;;;;7.43;2.20;;;;;;;;;;2329923;57;21122;-77
2022/09/15 01:35:10;;;;;;;7.43;2.80;;;;;;;;;;2330321;54;21062;-76
2022/09/15 01:37:39;;;;;;;2.92;2.00;;;;;;;;;;2330189;57;21113;-77
2022/09/15 01:40:08;;;;;;;4.70;2.42;;;;;;;;;;2330219;57;21537;-77
2022/09/15 01:42:36;;;;;;;4.30;1.95;;;;;;;;;;2330439;57;21129;-77
2022/09/15 01:45:06;;;;;;;3.33;2.10;;;;;;;;;;2329874;57;21042;-76
2022/09/15 01:47:34;;;;;;;2.65;1.90;;;;;;;;;;2329916;57;21118;-77
2022/09/15 01:50:05;;;;;;;5.12;2.70;;;;;;;;;;2428516;54;21062;-77
2022/09/15 01:52:33;;;;;;;6.95;2.55;;;;;;;;;;2455708;54;21054;-77
2022/09/15 01:55:02;;;;;;;6.22;3.17;;;;;;;;;;2330137;57;21568;-76
2022/09/15 01:57:29;;;;;;;4.45;2.25;;;;;;;;;;2329977;57;21142;-76
2022/09/15 01:59:56;;;;;;;3.30;1.85;;;;;;;;;;2330034;57;21054;-77
2022/09/15 02:02:25;;;;;;;9.25;3.20;;;;;;;;;;2330267;57;21561;-77
2022/09/15 02:04:54;;;;;;;5.18;2.47;;;;;;;;;;2329986;57;21122;-76
2022/09/15 02:07:26;;;;;;;4.07;2.55;;;;;;;;;;2329777;57;21058;-77
2022/09/15 02:09:57;;;;;;;8.15;2.62;;;;;;;;;;2330289;57;21053;-77
2022/09/15 02:12:28;;;;;;;8.63;3.00;;;;;;;;;;2330364;57;21094;-77
2022/09/15 02:14:56;;;;;;;4.37;2.50;;;;;;;;;;2329973;57;21062;-77
2022/09/15 02:17:25;;;;;;;3.42;2.40;;;;;;;;;;2329976;57;21109;-77
2022/09/15 02:19:54;;;;;;;4.72;2.62;;;;;;;;;;2330392;57;21181;-74
2022/09/15 02:22:23;;;;;;;5.72;2.87;;;;;;;;;;2330156;57;21101;-76
2022/09/15 02:24:56;;;;;;;6.75;2.60;;;;;;;;;;2329937;57;21125;-76
2022/09/15 02:27:25;;;;;;;6.27;2.77;;;;;;;;;;2330278;57;21094;-77
2022/09/15 02:29:53;;;;;;;4.55;2.45;;;;;;;;;;2330212;57;21130;-77
2022/09/15 02:32:23;;;;;;;3.20;2.22;;;;;;;;;;2330265;57;21121;-77
2022/09/15 02:34:51;;;;;;;7.05;2.53;;;;;;;;;;2393037;54;21042;-77
2022/09/15 02:37:19;;;;;;;8.90;2.50;;;;;;;;;;2329664;57;21058;-77
2022/09/15 02:39:49;;;;;;;4.68;2.55;;;;;;;;;;2507968;53;21097;-76
2022/09/15 02:42:23;;;;;;;4.57;2.83;;;;;;;;;;2330413;57;21042;-76
2022/09/15 02:44:51;;;;;;;5.03;2.72;;;;;;;;;;2330114;57;21537;-76
2022/09/15 02:47:17;;;;;;;4.53;2.78;;;;;;;;;;2330010;57;21062;-77
2022/09/15 02:49:44;;;;;;;7.60;2.92;;;;;;;;;;2329876;57;21049;-76
2022/09/15 02:52:12;;;;;;;4.25;2.70;;;;;;;;;;2330383;57;21055;-77
2022/09/15 02:54:39;;;;;;;7.20;2.92;;;;;;;;;;2330177;57;21189;-77
2022/09/15 02:57:06;;;;;;;8.02;3.17;;;;;;;;;;2329934;57;21596;-77
2022/09/15 03:02:20;;;;;;;5.32;2.53;;;;;;;;;;2329964;55;21034;-77
2022/09/15 03:04:47;;;;;;;7.35;3.53;;;;;;;;;;2330044;57;21141;-77
2022/09/15 03:07:14;;;;;;;5.53;3.25;;;;;;;;;;2329689;57;21544;-77
2022/09/15 03:09:41;;;;;;;6.55;2.55;;;;;;;;;;2330169;57;21046;-78
2022/09/15 03:12:08;;;;;;;8.13;3.47;;;;;;;;;;2398885;54;21050;-77
2022/09/15 03:14:36;;;;;;;8.88;3.10;;;;;;;;;;2330136;57;21054;-77
2022/09/15 03:17:03;;;;;;;6.30;3.00;;;;;;;;;;2330035;54;21217;-77
2022/09/15 03:19:30;;;;;;;5.00;3.08;;;;;;;;;;2330255;57;21564;-77
2022/09/15 03:21:57;;;;;;;4.75;2.92;;;;;;;;;;2380795;54;21557;-76
2022/09/15 03:24:24;;;;;;;8.10;3.37;;;;;;;;;;2358415;54;21050;-77
2022/09/15 03:26:52;;;;;;;5.82;2.80;;;;;;;;;;2329555;57;21098;-77
2022/09/15 03:29:19;;;;;;;5.37;2.45;;;;;;;;;;2330104;57;21126;-77
2022/09/15 03:31:46;;;;;;;4.80;2.55;;;;;;;;;;2329665;57;21046;-76
2022/09/15 03:34:13;;;;;;;6.07;2.85;;;;;;;;;;2330130;57;21062;-77
2022/09/15 03:36:40;;;;;;;6.35;3.33;;;;;;;;;;2414289;54;21118;-76
2022/09/15 03:39:07;;;;;;;4.20;2.83;;;;;;;;;;2330294;57;21581;-76
2022/09/15 03:41:34;;;;;;;6.30;2.90;;;;;;;;;;2330227;57;21054;-77
2022/09/15 03:44:01;;;;;;;5.40;2.75;;;;;;;;;;2330182;57;21035;-77
2022/09/15 03:46:29;;;;;;;5.57;2.53;;;;;;;;;;2329674;57;21050;-77
2022/09/15 03:48:56;;;;;;;5.97;2.70;;;;;;;;;;2330363;57;21121;-77
2022/09/15 03:51:24;;;;;;;5.43;2.55;;;;;;;;;;2330108;57;21070;-77
2022/09/15 03:53:51;;;;;;;4.78;2.25;;;;;;;;;;2330277;57;21062;-77
2022/09/15 03:56:21;;;;;;;5.97;2.15;;;;;;;;;;2329321;57;21097;-77
2022/09/15 03:58:48;;;;;;;11.15;3.42;;;;;;;;;;2437879;54;21050;-78
2022/09/15 04:01:17;;;;;;;9.20;2.95;;;;;;;;;;2330259;57;21050;-77
2022/09/15 04:03:44;;;;;;;7.20;2.30;;;;;;;;;;2330339;57;21105;-77
2022/09/15 04:06:11;;;;;;;3.53;2.00;;;;;;;;;;2329383;57;21054;-76
2022/09/15 04:08:38;;;;;;;7.28;3.35;;;;;;;;;;2330405;57;21122;-77
2022/09/15 04:11:06;;;;;;;8.68;3.33;;;;;;;;;;2329827;57;21600;-77
2022/09/15 04:13:33;;;;;;;5.68;2.00;;;;;;;;;;2330210;57;21438;-77
2022/09/15 04:16:01;;;;;;;5.32;2.10;;;;;;;;;;2329415;57;21050;-76
2022/09/15 04:18:28;;;;;;;7.00;2.40;;;;;;;;;;2330092;57;21059;-76
2022/09/15 04:20:58;;;;;;;3.83;1.67;;;;;;;;;;2330387;57;21537;-77
2022/09/15 04:23:25;;;;;;;7.65;2.30;;;;;;;;;;2334536;54;21038;-76
2022/09/15 04:25:56;;;;;;;9.07;1.77;;;;;;;;;;2329830;57;21301;-78
2022/09/15 04:28:23;;;;;;;3.62;1.65;;;;;;;;;;2330072;57;21066;-77
2022/09/15 04:30:50;;;;;;;7.60;3.05;;;;;;;;;;2330466;57;21114;-77
2022/09/15 04:33:17;;;;;;;5.50;2.15;;;;;;;;;;2330121;57;21540;-77
2022/09/15 04:35:44;;;;;;;4.70;2.03;;;;;;;;;;2329989;57;21105;-77
2022/09/15 04:38:11;;;;;;;9.55;2.62;;;;;;;;;;2329972;57;21313;-76
2022/09/15 04:40:38;;;;;;;4.05;1.92;;;;;;;;;;2510921;54;21537;-77
2022/09/15 04:43:05;;;;;;;3.62;1.67;;;;;;;;;;2330123;57;21055;-76
2022/09/15 04:45:32;;;;;;;7.15;2.53;;;;;;;;;;2329648;57;21141;-77
2022/09/15 04:47:59;;;;;;;6.45;2.30;;;;;;;;;;2330007;57;21106;-76
2022/09/15 04:50:26;;;;;;;4.18;1.92;;;;;;;;;;2335682;54;21618;-76
2022/09/15 04:52:53;;;;;;;5.93;2.00;;;;;;;;;;2330210;57;21046;-77
2022/09/15 04:55:20;;;;;;;6.15;2.37;;;;;;;;;;2329742;57;21044;-76
2022/09/15 04:57:47;;;;;;;5.45;2.05;;;;;;;;;;2330292;57;21122;-77
2022/09/15 05:00:15;;;;;;;7.43;1.87;;;;;;;;;;2330659;57;21125;-77
2022/09/15 05:02:43;;;;;;;4.18;2.05;;;;;;;;;;2330404;57;21129;-76
2022/09/15 05:05:10;;;;;;;9.57;1.92;;;;;;;;;;2330365;57;21130;-77
2022/09/15 05:07:37;;;;;;;3.42;2.12;;;;;;;;;;2329783;57;21062;-77
2022/09/15 05:10:05;;;;;;;5.68;2.00;;;;;;;;;;2330293;57;21046;-74
2022/09/15 05:12:32;;;;;;;6.57;2.00;;;;;;;;;;2427534;54;21041;-76
2022/09/15 05:14:59;;;;;;;6.43;2.00;;;;;;;;;;2330121;57;21058;-77
2022/09/15 05:17:29;;;;;;;2.37;1.50;;;;;;;;;;2329795;57;21054;-77
2022/09/15 05:19:56;;;;;;;2.78;1.65;;;;;;;;;;2330357;57;21094;-76
2022/09/15 05:22:23;;;;;;;5.93;1.70;;;;;;;;;;2330045;57;21540;-76
2022/09/15 05:24:50;;;;;;;6.90;1.70;;;;;;;;;;2330014;57;21098;-76
2022/09/15 05:27:17;;;;;;;5.62;1.67;;;;;;;;;;2329977;57;21110;-75
2022/09/15 05:29:44;;;;;;;4.20;1.80;;;;;;;;;;2330250;57;21046;-76
2022/09/15 05:32:11;;;;;;;8.27;2.80;;;;;;;;;;2330400;57;21114;-76
2022/09/15 05:34:38;;;;;;;5.43;1.90;;;;;;;;;;2330312;57;21736;-76
2022/09/15 05:37:05;;;;;;;11.12;2.28;;;;;;;;;;2330173;57;21093;-76
2022/09/15 05:39:32;;;;;;;5.35;1.80;;;;;;;;;;2330012;57;21576;-75
2022/09/15 05:41:59;;;;;;;9.80;2.12;;;;;;;;;;2330532;57;21054;-75
2022/09/15 05:44:26;;;;;;;4.93;1.75;;;;;;;;;;2330139;57;21101;-75
2022/09/15 05:46:53;;;;;;;5.68;1.50;;;;;;;;;;2329712;57;21208;-76
2022/09/15 05:49:20;;;;;;;11.98;2.60;;;;;;;;;;2330026;57;21046;-76
2022/09/15 05:51:47;;;;;;;7.53;2.05;;;;;;;;;;2330223;57;21533;-75
2022/09/15 05:54:14;;;;;;;12.18;2.28;;;;;;;;;;2340095;54;21050;-75
2022/09/15 05:56:41;;;;;;;7.53;1.90;;;;;;;;;;2329788;57;21050;-75
2022/09/15 05:59:08;;;;;;;5.57;1.92;;;;;;;;;;2330233;57;21042;-75
2022/09/15 06:01:35;;;;;;;10.55;1.85;;;;;;;;;;2346954;54;21125;-75
2022/09/15 06:04:03;;;;;;;9.05;1.90;;;;;;;;;;2330216;57;21065;-75
2022/09/15 06:06:31;;;;;;;3.40;1.58;;;;;;;;;;2329956;57;21651;-75
2022/09/15 06:08:59;;;;;;;3.90;1.73;;;;;;;;;;2330079;57;21129;-75
2022/09/15 06:11:27;;;;;;;3.62;1.60;;;;;;;;;;2333379;54;21067;-76
2022/09/15 06:13:54;;;;;;;3.83;1.52;;;;;;;;;;2329515;57;21069;-75
2022/09/15 06:16:22;;;;;;;7.60;1.92;;;;;;;;;;2329473;57;21051;-75
2022/09/15 06:18:50;;;;;;;5.37;1.77;;;;;;;;;;2332202;54;21065;-76
2022/09/15 06:21:18;;;;;;;4.80;1.77;;;;;;;;;;2330138;57;21046;-76
2022/09/15 06:23:45;;;;;;;8.38;1.77;;;;;;;;;;2330093;57;21046;-76
2022/09/15 06:26:12;;;;;;;7.80;1.87;;;;;;;;;;2329829;57;21043;-77
2022/09/15 06:28:41;;;;;;;7.50;1.70;;;;;;;;;;2329886;57;21050;-76
2022/09/15 06:31:10;;;;;;;8.27;2.12;;;;;;;;;;2330412;57;21034;-76
2022/09/15 06:33:41;;;;;;;6.60;2.08;;;;;;;;;;2330370;57;21102;-76
2022/09/15 06:36:09;;;;;;;5.62;1.60;;;;;;;;;;2330092;57;21061;-76
2022/09/15 06:38:36;;;;;;;6.47;1.87;;;;;;;;;;2330273;57;21058;-76
2022/09/15 06:41:03;;;;;;;5.78;2.00;;;;;;;;;;2330339;57;21078;-76
2022/09/15 06:43:30;;;;;;;7.57;1.50;;;;;;;;;;2330287;57;21046;-76
2022/09/15 06:46:02;;;;;;;9.27;1.83;;;;;;;;;;2329515;57;21592;-77
2022/09/15 06:48:30;;;;;;;5.53;1.40;;;;;;;;;;2330409;57;21103;-76
2022/09/15 06:50:58;;;;;;;7.30;1.60;;;;;;;;;;2330207;57;21601;-77
2022/09/15 06:53:25;;;;;;;5.57;1.73;;;;;;;;;;2330011;57;21066;-76
2022/09/15 06:55:52;;;;;;;10.70;2.80;;;;;;;;;;2329906;57;21046;-76
2022/09/15 06:58:19;;;;;;;6.65;1.48;;;;;;;;;;2329971;57;21074;-77
2022/09/15 07:00:46;;;;;;;4.35;1.65;;;;;;;;;;2330335;57;21050;-77
2022/09/15 07:03:13;;;;;;;5.00;1.48;;;;;;;;;;2330314;57;21065;-76
2022/09/15 07:05:40;;;;;;;8.20;2.10;;;;;;;;;;2329811;57;21050;-76
2022/09/15 07:08:07;;;;;;;6.28;1.67;;;;;;;;;;2330061;57;21541;-76
2022/09/15 07:10:34;;;;;;;5.55;1.42;;;;;;;;;;2330118;57;21105;-76
2022/09/15 07:13:02;;;;;;;6.40;1.42;;;;;;;;;;2474858;54;21058;-76
2022/09/15 07:15:30;;;;;;;6.55;1.85;;;;;;;;;;2329650;57;21054;-76
2022/09/15 07:17:57;;;;;;;6.12;1.70;;;;;;;;;;2330539;57;21046;-76
2022/09/15 07:20:24;;;;;;;6.93;1.27;;;;;;;;;;2330155;57;21039;-76
2022/09/15 07:22:51;;;;;;;8.48;1.62;;;;;;;;;;2330241;57;21070;-76
2022/09/15 07:25:18;;;;;;;5.80;1.77;;;;;;;;;;2329864;57;21066;-76
2022/09/15 07:27:45;;;;;;;7.28;1.50;;;;;;;;;;2330426;57;21098;-76
2022/09/15 07:30:13;;;;;;;10.15;1.98;;;;;;;;;;2516575;52;71246;-80
2022/09/15 07:32:40;;;;;;;5.05;1.30;;;;;;;;;;2332160;57;21129;-81
2022/09/15 07:35:08;;;;;;;3.40;1.20;;;;;;;;;;2575856;53;21057;-82
2022/09/15 07:37:35;;;;;;;6.57;1.40;;;;;;;;;;2575831;53;21054;-81
2022/09/15 07:40:03;;;;;;;11.65;3.30;;;;;;;;;;2574960;53;21542;-80
2022/09/15 07:42:31;;;;;;;5.30;1.37;;;;;;;;;;2574473;54;21090;-80
2022/09/15 07:44:58;;;;;;;7.47;1.35;;;;;;;;;;2574316;54;21558;-81
2022/09/15 07:47:25;;;;;;;5.40;1.75;;;;;;;;;;2574045;54;21118;-80
2022/09/15 07:49:52;;;;;;;4.80;1.10;;;;;;;;;;2330418;57;21062;-81
2022/09/15 07:52:19;;;;;;;7.65;1.40;;;;;;;;;;2330482;57;21055;-80
2022/09/15 07:54:46;;;;;;;4.20;1.27;;;;;;;;;;2574004;54;21106;-80
2022/09/15 07:57:12;;;;;;;6.55;1.60;;;;;;;;;;2330310;57;21109;-80
2022/09/15 07:59:39;;;;;;;3.45;1.42;;;;;;;;;;2330340;57;21599;-80
2022/09/15 08:02:06;;;;;;;6.55;1.35;;;;;;;;;;2330657;57;21074;-82
2022/09/15 08:04:33;;;;;;;3.08;0.90;;;;;;;;;;2331337;57;21626;-81
2022/09/15 08:07:00;;;;;;;4.25;1.05;;;;;;;;;;2574755;53;21046;-81
2022/09/15 08:09:27;;;;;;;5.05;1.08;;;;;;;;;;2331448;57;21165;-82
2022/09/15 08:11:54;;;;;;;4.68;1.10;;;;;;;;;;2331452;57;21078;-81
2022/09/15 08:14:21;;;;;;;5.22;1.23;;;;;;;;;;2331671;57;21066;-81
2022/09/15 08:16:48;;;;;;;10.85;1.20;;;;;;;;;;2574450;54;21051;-82
2022/09/15 08:19:15;;;;;;;3.60;1.02;;;;;;;;;;2331588;57;21062;-82
2022/09/15 08:21:42;;;;;;;3.85;1.30;;;;;;;;;;2331377;57;21074;-81
2022/09/15 08:24:09;;;;;;;7.03;1.60;;;;;;;;;;2331307;57;21047;-81
2022/09/15 08:26:37;;;;;;;10.85;2.65;;;;;;;;;;2331227;57;21078;-81
2022/09/15 08:29:04;;;;;;;4.25;1.42;;;;;;;;;;2331508;57;21138;-81
2022/09/15 08:31:31;;;;;;;4.12;1.40;;;;;;;;;;2575473;54;21058;-82
2022/09/15 08:34:02;;;;;;;3.12;1.27;;;;;;;;;;2331649;57;21038;-81
2022/09/15 08:36:30;;;;;;;4.87;1.42;;;;;;;;;;2575043;54;21054;-82
2022/09/15 08:38:57;;;;;;;3.70;1.27;;;;;;;;;;2575572;53;21058;-81
2022/09/15 08:41:27;;;;;;;7.80;1.48;;;;;;;;;;2575275;54;21046;-81
2022/09/15 08:43:57;;;;;;;5.05;1.17;;;;;;;;;;2331665;57;21121;-80
2022/09/15 08:46:27;;;;;;;5.85;1.42;;;;;;;;;;2575078;53;21054;-82
2022/09/15 08:48:59;;;;;;;6.50;1.12;;;;;;;;;;2331421;57;21058;-81
2022/09/15 08:51:29;;;;;;;5.43;1.40;;;;;;;;;;2331698;57;21098;-80
2022/09/15 08:53:58;;;;;;;7.37;1.23;;;;;;;;;;2331431;57;21145;-82
2022/09/15 08:56:28;;;;;;;15.10;1.62;;;;;;;;;;2575099;54;21630;-81
2022/09/15 08:58:55;;;;;;;5.47;1.02;;;;;;;;;;2575049;53;21043;-81
2022/09/15 09:01:27;;;;;;;5.50;1.50;;;;;;;;;;2331356;57;21133;-80
2022/09/15 09:04:09;;;;;;;6.50;1.30;;;;;;;;;;2575153;53;21106;-81
2022/09/15 09:06:40;;;;;;;6.07;1.00;;;;;;;;;;2331366;57;21106;-82
2022/09/15 09:09:15;;;;;;;6.50;1.15;;;;;;;;;;2575465;53;21058;-81
2022/09/15 09:11:58;;;;;;;3.78;1.00;;;;;;;;;;2331531;57;21050;-81
2022/09/15 09:14:32;;;;;;;5.87;1.85;;;;;;;;;;2331955;57;21066;-81
2022/09/15 09:17:09;;;;;;;7.62;1.40;;;;;;;;;;2575083;53;21538;-80
2022/09/15 09:19:49;;;;;;;6.07;1.70;;;;;;;;;;2575979;53;21061;-81
2022/09/15 09:22:17;;;;;;;5.72;1.50;;;;;;;;;;2331414;57;21112;-80
2022/09/15 09:24:46;;;;;;;9.43;2.03;;;;;;;;;;2332227;57;21058;-81
2022/09/15 09:27:14;;;;;;;3.95;1.12;;;;;;;;;;2575834;54;21062;-81
2022/09/15 09:29:43;;;;;;;5.47;1.30;;;;;;;;;;2576048;53;21062;-80
2022/09/15 09:32:16;;;;;;;4.50;1.15;;;;;;;;;;2575944;54;22278;-82
2022/09/15 09:34:44;;;;;;;6.00;1.52;;;;;;;;;;2575874;53;21050;-82
2022/09/15 09:37:13;;;;;;;5.37;1.17;;;;;;;;;;2331602;57;21054;-83
2022/09/15 09:39:40;;;;;;;5.93;1.42;;;;;;;;;;2575910;53;21034;-81
2022/09/15 09:42:11;;;;;;;6.32;1.30;;;;;;;;;;2332431;57;21046;-81
2022/09/15 09:44:39;;;;;;;4.07;1.27;;;;;;;;;;2332762;57;21042;-80
2022/09/15 09:47:06;;;;;;;5.78;1.20;;;;;;;;;;2331617;57;21054;-82
2022/09/15 09:49:35;;;;;;;4.55;1.12;;;;;;;;;;2575742;53;21050;-81
2022/09/15 09:52:03;;;;;;;2.40;1.10;;;;;;;;;;2332085;57;21118;-81
2022/09/15 09:54:31;;;;;;;5.93;1.27;;;;;;;;;;2332126;57;21129;-82
2022/09/15 09:57:20;;;;;;;5.28;1.12;;;;;;;;;;2331380;57;21658;-81
2022/09/15 09:59:48;;;;;;;1.95;0.98;;;;;;;;;;2575337;53;21567;-82
2022/09/15 10:02:16;;;;;;;3.17;0.93;;;;;;;;;;2331973;57;21125;-82
2022/09/15 10:04:44;;;;;;;6.25;1.30;;;;;;;;;;2575496;54;21068;-81
2022/09/15 10:07:12;;;;;;;3.97;1.15;;;;;;;;;;2331419;57;21061;-82
2022/09/15 10:09:39;;;;;;;6.60;1.20;;;;;;;;;;2575623;53;21264;-80
2022/09/15 10:12:07;;;;;;;6.03;1.30;;;;;;;;;;2331393;57;21062;-81
2022/09/15 10:14:35;;;;;;;5.22;1.17;;;;;;;;;;2331790;57;21105;-81
2022/09/15 10:17:06;;;;;;;8.00;1.52;;;;;;;;;;2575195;54;21061;-82
2022/09/15 10:19:35;;;;;;;7.30;1.20;;;;;;;;;;2331961;57;21594;-81
2022/09/15 10:22:03;;;;;;;5.37;1.80;;;;;;;;;;2332236;57;21598;-82
2022/09/15 10:24:33;;;;;;;5.10;1.25;;;;;;;;;;2332406;57;21129;-82
2022/09/15 10:27:16;;;;;;;5.75;1.12;;;;;;;;;;2331899;57;21105;-81
2022/09/15 10:29:43;;;;;;;5.82;1.00;;;;;;;;;;2332233;57;21066;-82
2022/09/15 10:32:20;;;;;;;5.85;1.42;;;;;;;;;;2331507;57;21042;-81
2022/09/15 10:34:48;;;;;;;2.87;1.02;;;;;;;;;;2330743;57;21752;-81
2022/09/15 10:37:20;;;;;;;3.58;0.82;;;;;;;;;;2330427;57;21355;-81
2022/09/15 10:39:53;;;;;;;3.35;0.98;;;;;;;;;;2574492;53;21637;-81
2022/09/15 10:42:25;;;;;;;4.68;1.00;;;;;;;;;;2575524;54;21058;-83
2022/09/15 10:44:56;;;;;;;1.70;0.80;;;;;;;;;;2331769;57;21042;-82
2022/09/15 10:47:27;;;;;;;2.85;1.00;;;;;;;;;;2331174;57;21058;-82
2022/09/15 10:50:05;;;;;;;2.62;1.10;;;;;;;;;;2575275;53;21105;-83
2022/09/15 10:52:40;;;;;;;4.45;0.93;;;;;;;;;;2331910;57;21125;-82
2022/09/15 10:55:18;;;;;;;4.57;1.20;;;;;;;;;;2331568;57;21070;-82
2022/09/15 10:58:00;;;;;;;2.92;1.20;;;;;;;;;;2331600;57;21050;-83
2022/09/15 11:00:30;;;;;;;2.42;0.70;;;;;;;;;;2332071;57;21113;-82
2022/09/15 11:03:08;;;;;;;3.90;0.82;;;;;;;;;;2331453;57;21113;-81
2022/09/15 11:05:41;;;;;;;2.37;0.90;;;;;;;;;;2331086;57;21058;-84
2022/09/15 11:08:22;;;;;;;3.55;0.73;;;;;;;;;;2331728;57;21605;-82
2022/09/15 11:10:52;;;;;;;4.00;1.33;;;;;;;;;;2575322;54;21046;-82
2022/09/15 11:13:24;;;;;;;2.47;0.88;;;;;;;;;;2575195;53;21089;-82
2022/09/15 11:15:58;;;;;;;1.37;0.88;;;;;;;;;;2331042;57;21046;-82
2022/09/15 11:18:36;;;;;;;2.40;0.95;;;;;;;;;;2331597;57;21146;-82
2022/09/15 11:21:15;;;;;;;2.22;0.75;;;;;;;;;;2331547;57;21054;-82
2022/09/15 11:23:46;;;;;;;2.65;0.88;;;;;;;;;;2331735;57;21054;-82
2022/09/15 11:26:15;;;;;;;4.47;0.90;;;;;;;;;;2574613;54;21130;-83
2022/09/15 11:28:46;;;;;;;3.60;0.80;;;;;;;;;;2331489;57;21054;-81
2022/09/15 11:31:15;;;;;;;3.17;1.00;;;;;;;;;;2331362;57;21062;-83
2022/09/15 11:33:44;;;;;;;3.22;0.98;;;;;;;;;;2331455;57;21173;-82
2022/09/15 11:36:13;;;;;;;1.77;0.75;;;;;;;;;;2331088;57;21062;-83
2022/09/15 11:38:46;;;;;;;5.18;0.95;;;;;;;;;;2575368;53;21610;-83
2022/09/15 11:41:19;;;;;;;4.60;1.12;;;;;;;;;;2331910;57;21066;-82
2022/09/15 11:43:51;;;;;;;5.90;1.00;;;;;;;;;;2331829;57;21058;-82
2022/09/15 11:46:21;;;;;;;4.25;1.10;;;;;;;;;;2331023;57;21113;-83
2022/09/15 11:48:51;;;;;;;1.75;0.88;;;;;;;;;;2575527;53;21054;-83
2022/09/15 11:51:20;;;;;;;3.40;1.05;;;;;;;;;;2331239;57;21106;-82
2022/09/15 11:53:49;;;;;;;3.70;1.08;;;;;;;;;;2331096;57;21118;-82
2022/09/15 11:56:21;;;;;;;1.83;0.93;;;;;;;;;;2330622;57;21137;-82
2022/09/15 11:59:00;;;;;;;5.95;1.33;;;;;;;;;;2330834;57;21062;-83
2022/09/15 12:01:30;;;;;;;3.10;1.30;;;;;;;;;;2574645;54;21637;-82
2022/09/15 12:04:00;;;;;;;8.38;1.25;;;;;;;;;;2331143;57;21109;-82
2022/09/15 12:06:32;;;;;;;10.98;1.00;;;;;;;;;;2330703;57;21058;-83
2022/09/15 12:09:00;;;;;;;3.70;1.25;;;;;;;;;;2331066;57;21653;-81
2022/09/15 12:11:29;;;;;;;3.25;1.00;;;;;;;;;;2574582;54;21054;-82
2022/09/15 12:13:57;;;;;;;5.18;0.88;;;;;;;;;;2574775;54;21101;-82
2022/09/15 12:16:25;;;;;;;3.62;1.15;;;;;;;;;;2574277;54;21042;-83
2022/09/15 12:18:54;;;;;;;5.07;1.10;;;;;;;;;;2574613;53;21613;-83
2022/09/15 12:21:27;;;;;;;5.72;1.10;;;;;;;;;;2330957;57;21134;-83
2022/09/15 12:23:58;;;;;;;5.22;1.10;;;;;;;;;;2331165;57;21058;-82
2022/09/15 12:26:26;;;;;;;4.62;1.02;;;;;;;;;;2574131;53;21050;-81
2022/09/15 12:28:57;;;;;;;4.05;1.05;;;;;;;;;;2330675;57;21055;-82
2022/09/15 12:31:26;;;;;;;4.10;1.02;;;;;;;;;;2330782;57;21103;-82
2022/09/15 12:33:54;;;;;;;2.75;0.70;;;;;;;;;;2331008;57;21109;-82
2022/09/15 12:36:53;;;;;;;2.45;0.82;;;;;;;;;;2330635;57;21059;-81
2022/09/15 12:39:22;;;;;;;3.25;0.80;;;;;;;;;;2513606;53;21038;-83
2022/09/15 12:41:50;;;;;;;1.83;0.85;;;;;;;;;;2330830;57;21524;-82
2022/09/15 12:44:23;;;;;;;6.30;1.10;;;;;;;;;;2330706;57;21042;-82
2022/09/15 12:46:54;;;;;;;3.03;1.20;;;;;;;;;;2330508;57;21124;-82
2022/09/15 12:49:23;;;;;;;1.98;0.70;;;;;;;;;;2330762;57;21046;-82
2022/09/15 12:51:50;;;;;;;7.03;1.30;;;;;;;;;;2330781;57;21113;-83
2022/09/15 12:54:22;;;;;;;5.10;0.93;;;;;;;;;;2330862;57;21113;-82
2022/09/15 12:56:51;;;;;;;3.97;1.02;;;;;;;;;;2573983;54;21062;-83
2022/09/15 12:59:24;;;;;;;4.62;1.10;;;;;;;;;;2330647;57;21141;-82
2022/09/15 13:01:51;;;;;;;4.97;1.00;;;;;;;;;;2330948;57;21113;-82
2022/09/15 13:04:26;;;;;;;4.50;1.00;;;;;;;;;;2330683;57;21552;-83
2022/09/15 13:07:19;;;;;;;2.08;0.90;;;;;;;;;;2573731;54;21054;-83
2022/09/15 13:09:55;;;;;;;2.53;0.83;;;;;;;;;;2296479;57;21129;-82
2022/09/15 13:12:24;;;;;;;3.55;1.08;;;;;;;;;;2330442;57;21122;-82
2022/09/15 13:14:54;;;;;;;5.28;1.10;;;;;;;;;;2574386;54;21050;-82
2022/09/15 13:17:23;;;;;;;2.70;0.98;;;;;;;;;;2330097;57;21133;-81
2022/09/15 13:19:51;;;;;;;5.40;1.50;;;;;;;;;;2574339;53;21098;-82
2022/09/15 13:22:26;;;;;;;6.62;1.55;;;;;;;;;;2330568;57;21050;-82
2022/09/15 13:24:54;;;;;;;5.25;1.42;;;;;;;;;;2330834;57;21058;-81
2022/09/15 13:27:23;;;;;;;6.15;1.67;;;;;;;;;;2330410;57;21162;-82
2022/09/15 13:29:52;;;;;;;3.00;0.73;;;;;;;;;;2479025;52;21031;-82
2022/09/15 13:32:35;;;;;;;4.72;1.20;;;;;;;;;;2388744;56;21039;-82
2022/09/15 13:35:24;;;;;;;6.60;1.40;;;;;;;;;;2388695;56;21035;-82
2022/09/15 13:38:00;;;;;;;3.72;0.85;;;;;;;;;;2388069;56;21094;-82
2022/09/15 13:40:33;;;;;;;4.10;0.95;;;;;;;;;;2367653;56;21039;-81
2022/09/15 13:43:09;;;;;;;2.85;0.75;;;;;;;;;;2360571;57;21043;-82
2022/09/15 13:45:43;;;;;;;1.80;0.93;;;;;;;;;;2360089;57;21028;-82
2022/09/15 13:48:22;;;;;;;2.53;1.00;;;;;;;;;;2610782;53;21091;-82
2022/09/15 13:50:53;;;;;;;1.65;1.10;;;;;;;;;;2360617;57;21020;-82
2022/09/15 13:53:28;;;;;;;4.15;1.10;;;;;;;;;;2610800;53;21060;-82
2022/09/15 13:55:56;;;;;;;1.67;0.80;;;;;;;;;;2609851;53;21024;-80
2022/09/15 13:58:24;;;;;;;4.07;1.05;;;;;;;;;;2609665;53;21508;-81
2022/09/15 14:00:57;;;;;;;2.42;1.58;;;;;;;;;;2359877;56;21028;-81
2022/09/15 14:03:26;;;;;;;3.08;1.00;;;;;;;;;;2360109;57;21056;-83
2022/09/15 14:05:54;;;;;;;2.22;0.75;;;;;;;;;;2609415;53;21004;-83
2022/09/15 14:08:23;;;;;;;4.57;1.23;;;;;;;;;;2609076;53;21044;-82
2022/09/15 14:10:53;;;;;;;4.35;1.15;;;;;;;;;;2609230;52;21034;-81
2022/09/15 14:13:21;;;;;;;3.50;1.45;;;;;;;;;;2608891;53;20985;-82
2022/09/15 14:15:58;;;;;;;1.23;0.80;;;;;;;;;;2610884;53;21068;-83
2022/09/15 14:18:25;;;;;;;4.57;1.20;;;;;;;;;;2610866;53;21103;-82
2022/09/15 14:20:59;;;;;;;4.18;1.23;;;;;;;;;;2610922;52;21031;-82
2022/09/15 14:23:26;;;;;;;3.25;1.40;;;;;;;;;;2611207;53;21028;-82
2022/09/15 14:25:53;;;;;;;5.35;1.42;;;;;;;;;;2610765;53;21009;-83
2022/09/15 14:28:23;;;;;;;5.03;1.08;;;;;;;;;;2610877;53;21040;-83
2022/09/15 14:30:50;;;;;;;4.50;1.30;;;;;;;;;;2610463;52;21476;-84
2022/09/15 14:33:17;;;;;;;5.18;1.27;;;;;;;;;;2610968;53;21599;-83
2022/09/15 14:35:46;;;;;;;2.12;1.02;;;;;;;;;;2360574;57;21801;-83
2022/09/15 14:38:23;;;;;;;2.95;1.05;;;;;;;;;;2361000;57;21036;-83
2022/09/15 14:40:51;;;;;;;6.10;1.60;;;;;;;;;;2360801;57;21549;-83
2022/09/15 14:43:25;;;;;;;7.40;1.48;;;;;;;;;;2611037;53;21036;-83
2022/09/15 14:45:52;;;;;;;4.05;1.60;;;;;;;;;;2360002;57;21047;-83
2022/09/15 14:48:25;;;;;;;3.42;1.50;;;;;;;;;;2360794;57;21066;-83
2022/09/15 14:50:59;;;;;;;8.20;1.30;;;;;;;;;;2610680;52;21079;-83
2022/09/15 14:53:27;;;;;;;7.05;1.30;;;;;;;;;;2360776;57;21051;-83
2022/09/15 14:55:57;;;;;;;4.37;1.12;;;;;;;;;;2610394;53;21024;-84
2022/09/15 14:58:26;;;;;;;3.72;1.00;;;;;;;;;;2360840;57;21107;-84
2022/09/15 15:00:56;;;;;;;4.70;1.70;;;;;;;;;;2610838;52;21076;-83
2022/09/15 15:03:29;;;;;;;4.35;1.10;;;;;;;;;;2610500;53;21084;-84